Flight Track Log - Related Links

Times and Time Zones

All times are in EDT time to prevent confusion due to time zone crossing. See the FLG4151 flight status page for this flight to view local times or setup timezone preferences in your user account.

Time Position Orientation Groundspeed Altitude Reporting Facility
EDT Latitude Longitude Course Direction KTS MPH feet Rate Location/Type
Mon 12:39:54 PM 42.2011 -83.3778 North 164 189 1,500  Level Cleveland Center
Mon 12:40:37 PM 42.2000 -83.4225 268° West 193 222 2,900 1,500 Climbing Cleveland Center
Mon 12:41:38 PM 42.2361 -83.4831 309° West 242 278 4,100 1,317 Climbing Cleveland Center
Mon 12:42:00 PM 42.4320 -83.3500 North  Level FlightAware Approximate
Mon 12:42:40 PM 42.2819 -83.5581 310° West 254 292 5,600  Level Cleveland Center
Mon 12:43:00 PM 42.5094 -83.3500 North  Level FlightAware Approximate
Mon 12:43:41 PM 42.3433 -83.6089 329° Northwest 268 308 7,900  Level Cleveland Center
Mon 12:44:00 PM 42.5868 -83.3500 North  Level FlightAware Approximate
Mon 12:44:48 PM 42.4214 -83.6464 340° North 264 304 8,000  Level Cleveland Center
Mon 12:45:00 PM 42.6641 -83.3500 North  Level FlightAware Approximate
Mon 12:45:44 PM 42.4789 -83.6831 335° Northwest 247 284 8,000  Level Cleveland Center
Mon 12:47:00 PM 42.5911 -83.6832 360° North  Level FlightAware Approximate
Mon 12:54:00 PM 43.1837 -83.9311 346° North  Level Estimated
Mon 12:55:00 PM 43.2683 -83.9670 340° North  Level Estimated
Mon 12:56:00 PM 43.3529 -84.0029 336° Northwest  Level Estimated
Mon 12:57:00 PM 43.4375 -84.0389 331° Northwest  Level Estimated
Mon 12:58:00 PM 43.5167 -84.0667 346° North  Level FlightAware Approximate
Mon 12:59:00 PM 43.5329 -84.0796 346° North  Level Estimated
Mon 01:00:00 PM 43.5329 -84.0796 346° North  Level Estimated
Mon 01:01:00 PM 43.5329 -84.0796 346° North  Level Estimated
Mon 01:02:00 PM 43.5329 -84.0796 346° North  Level Estimated
Mon 01:03:00 PM 43.5329 -84.0796 346° North  Level Estimated
Mon 01:04:00 PM 43.5329 -84.0796 346° North  Level Estimated

Login

Don't have an account? Register now (free) for customized features, flight alerts, and more!